Time;durP1;ratioP1;P1;durP2;ratioP2;P2;SDS_P1;SDS_P2;PMS_P1;PMS_P2;Temp;Humidity;BMP_temperature;BMP_pressure;BME280_temperature;BME280_humidity;BME280_pressure;Samples;Min_cycle;Max_cycle;Signal;HPM_P1;HPM_P2
2022/08/01 00:05:33;;;;;;;4.50;4.20;;;;;;;12.15;94.05;99208.48;429620;1271;142751;-60
2022/08/01 00:15:39;;;;;;;7.70;4.80;;;;;;;12.10;94.37;99207.78;432483;1273;143119;-59
2022/08/01 00:25:56;;;;;;;16.10;5.40;;;;;;;12.14;94.62;99204.04;430121;1273;141921;-58
2022/08/01 00:36:02;;;;;;;7.90;5.00;;;;;;;12.10;94.63;99201.85;431034;1271;143825;-59
2022/08/01 00:46:07;;;;;;;5.80;5.30;;;;;;;12.12;94.96;99205.62;430811;1271;141639;-60
2022/08/01 00:56:14;;;;;;;4.80;4.40;;;;;;;12.15;95.15;99210.96;431532;1271;143136;-59
2022/08/01 01:06:36;;;;;;;5.70;5.30;;;;;;;12.19;95.09;99206.58;431966;1271;142976;-60
2022/08/01 01:16:44;;;;;;;5.70;5.20;;;;;;;12.22;95.11;99207.63;430717;1271;142778;-61
2022/08/01 01:26:58;;;;;;;13.00;5.80;;;;;;;12.25;95.14;99205.64;432446;1270;141826;-59
2022/08/01 01:37:07;;;;;;;4.80;4.50;;;;;;;12.26;95.08;99200.13;432180;1270;144521;-58
2022/08/01 01:47:14;;;;;;;4.60;3.90;;;;;;;12.28;95.03;99201.23;432197;1270;142318;-60
2022/08/01 01:57:22;;;;;;;4.70;3.30;;;;;;;12.19;94.63;99200.66;432042;1271;143496;-60
2022/08/01 02:07:29;;;;;;;3.10;2.90;;;;;;;12.05;94.27;99205.02;432984;1270;142898;-59
2022/08/01 02:17:42;;;;;;;4.00;2.90;;;;;;;11.91;93.99;99195.00;432612;1270;147177;-59
2022/08/01 02:27:52;;;;;;;3.20;2.80;;;;;;;11.73;93.81;99188.63;430503;1270;145900;-59
2022/08/01 02:38:00;;;;;;;7.70;3.30;;;;;;;11.64;93.92;99189.31;430563;1270;146704;-60
2022/08/01 02:48:10;;;;;;;9.80;2.60;;;;;;;11.58;94.07;99194.96;431955;1270;143751;-61
2022/08/01 02:58:19;;;;;;;5.60;2.30;;;;;;;11.53;93.99;99198.91;432442;1273;142650;-60
2022/08/01 03:08:26;;;;;;;6.00;3.00;;;;;;;11.46;94.03;99200.98;431946;1270;143379;-60
2022/08/01 03:18:33;;;;;;;6.10;3.50;;;;;;;11.44;94.11;99200.94;430528;1270;142620;-59
2022/08/01 03:28:39;;;;;;;3.90;3.70;;;;;;;11.48;94.26;99200.25;431270;1270;142053;-59
2022/08/01 03:38:47;;;;;;;3.60;3.20;;;;;;;11.59;94.22;99194.55;432744;1270;147339;-59
2022/08/01 03:48:56;;;;;;;3.90;3.60;;;;;;;11.79;94.03;99196.61;433693;1271;142422;-59
2022/08/01 03:59:04;;;;;;;3.20;2.90;;;;;;;12.08;93.57;99196.86;431595;1270;143376;-60
2022/08/01 04:09:11;;;;;;;3.20;2.70;;;;;;;12.40;93.27;99201.85;432154;1269;141686;-61
2022/08/01 04:19:18;;;;;;;3.90;2.60;;;;;;;12.96;92.80;99219.77;433184;1270;142907;-59
2022/08/01 04:29:26;;;;;;;2.80;2.60;;;;;;;13.82;91.72;99225.67;433818;1270;143297;-60
2022/08/01 04:39:36;;;;;;;3.30;2.20;;;;;;;15.06;89.48;99218.86;433010;1270;142339;-61
2022/08/01 04:49:56;;;;;;;3.50;2.00;;;;;;;16.39;86.61;99208.71;431207;1271;148140;-60
2022/08/01 05:00:04;;;;;;;2.90;2.10;;;;;;;18.25;83.51;99212.84;439351;1270;142315;-60
2022/08/01 05:10:10;;;;;;;2.50;2.20;;;;;;;21.20;80.10;99204.52;447601;1270;142889;-60
2022/08/01 05:20:16;;;;;;;2.00;1.90;;;;;;;25.48;73.01;99201.45;442395;1270;145723;-59
2022/08/01 05:30:22;;;;;;;1.90;1.50;;;;;;;32.73;63.54;99191.92;438668;1270;142373;-58
2022/08/01 05:40:28;;;;;;;2.20;1.20;;;;;;;37.81;53.50;99189.82;438117;1270;145705;-59
2022/08/01 05:50:35;;;;;;;3.00;1.50;;;;;;;41.60;45.93;99185.29;446775;1269;142218;-60
2022/08/01 06:00:41;;;;;;;2.60;1.60;;;;;;;44.21;39.75;99178.77;444654;1270;141920;-60
2022/08/01 06:10:46;;;;;;;1.70;1.40;;;;;;;46.71;34.23;99187.71;447055;1269;143115;-60
2022/08/01 06:20:52;;;;;;;3.00;1.60;;;;;;;48.55;30.44;99185.87;447825;1270;141726;-59
2022/08/01 06:30:59;;;;;;;4.20;1.30;;;;;;;50.04;27.12;99187.07;447920;1269;142307;-60
2022/08/01 06:41:05;;;;;;;2.20;2.00;;;;;;;50.98;24.55;99185.98;447147;1269;141468;-61
2022/08/01 06:51:13;;;;;;;2.90;2.70;;;;;;;52.20;22.57;99197.69;447905;1270;142289;-61
2022/08/01 07:01:19;;;;;;;2.90;2.70;;;;;;;53.10;20.86;99192.27;438821;1270;142685;-60
2022/08/01 07:11:26;;;;;;;7.00;4.00;;;;;;;53.52;19.35;99187.52;447093;1269;142873;-59
2022/08/01 07:21:32;;;;;;;4.30;4.00;;;;;;;53.37;18.45;99178.52;447769;1270;142188;-61
2022/08/01 07:31:45;;;;;;;4.90;4.60;;;;;;;53.16;18.06;99177.79;447161;1270;141692;-60
2022/08/01 07:41:51;;;;;;;7.10;6.70;;;;;;;54.11;17.51;99177.88;442048;1270;141695;-61
2022/08/01 07:52:17;;;;;;;14.20;5.70;;;;;;;53.14;16.86;99179.45;435415;1270;140589;-61
2022/08/01 08:02:23;;;;;;;5.90;5.00;;;;;;;51.45;17.47;99170.04;447141;1270;141731;-61
2022/08/01 08:12:29;;;;;;;2.20;2.00;;;;;;;52.77;16.67;99170.66;443404;1270;141636;-60
2022/08/01 08:22:36;;;;;;;6.40;2.50;;;;;;;48.26;17.86;99155.45;447509;1272;142003;-61
2022/08/01 08:32:42;;;;;;;10.10;2.50;;;;;;;40.93;21.53;99160.85;447727;1271;142252;-61
2022/08/01 08:42:48;;;;;;;5.60;1.70;;;;;;;36.64;24.47;99174.44;447685;1271;142260;-60
2022/08/01 08:52:56;;;;;;;1.90;1.30;;;;;;;34.31;27.49;99177.08;446916;1271;144974;-60
2022/08/01 09:03:02;;;;;;;4.00;1.20;;;;;;;32.98;28.73;99176.67;447258;1273;142173;-60
2022/08/01 09:13:12;;;;;;;2.90;1.60;;;;;;;32.76;29.61;99180.48;445748;1271;144974;-61
2022/08/01 09:23:34;;;;;;;2.20;1.60;;;;;;;32.32;30.16;99188.15;440803;1273;141884;-62
2022/08/01 09:33:55;;;;;;;7.50;1.80;;;;;;;31.67;31.03;99188.64;436302;1270;141703;-61
2022/08/01 09:44:03;;;;;;;1.10;1.10;;;;;;;31.14;31.06;99192.21;431487;1273;141339;-60
2022/08/01 09:54:09;;;;;;;2.30;1.10;;;;;;;31.62;31.10;99190.89;430614;1272;142511;-59
2022/08/01 10:04:18;;;;;;;8.50;1.80;;;;;;;32.50;30.67;99189.31;431460;1271;141033;-60
2022/08/01 10:14:25;;;;;;;1.30;1.10;;;;;;;32.03;30.33;99193.72;430880;1270;141581;-61
2022/08/01 10:24:32;;;;;;;3.10;1.10;;;;;;;30.98;31.27;99193.11;430975;1273;143750;-59
2022/08/01 10:34:40;;;;;;;3.50;1.40;;;;;;;30.94;32.30;99190.83;430919;1271;141918;-59
2022/08/01 10:44:50;;;;;;;1.40;1.20;;;;;;;31.07;32.37;99184.22;431673;1273;143594;-60
2022/08/01 10:55:04;;;;;;;;;;;;;;;30.38;33.02;99179.96;431371;1273;142106;-59
2022/08/01 11:05:20;;;;;;;2.20;1.50;;;;;;;29.42;34.84;99168.33;431618;1270;127610;-60
2022/08/01 11:15:28;;;;;;;4.10;1.50;;;;;;;29.14;35.42;99171.68;431654;1271;142193;-61
2022/08/01 11:26:09;;;;;;;1.50;1.30;;;;;;;28.76;35.94;99170.61;430597;1270;586660;-58
2022/08/01 11:36:22;;;;;;;3.10;1.70;;;;;;;28.80;36.08;99172.15;431868;1270;196443;-60
2022/08/01 11:47:09;;;;;;;9.00;2.30;;;;;;;29.09;35.83;99163.61;430785;1270;142380;-59
2022/08/01 11:57:22;;;;;;;2.50;1.70;;;;;;;28.85;36.67;99163.25;431788;1270;181126;-60
2022/08/01 12:07:31;;;;;;;6.90;3.10;;;;;;;28.72;37.31;99165.11;431889;1270;142115;-60
2022/08/01 12:17:41;;;;;;;5.30;1.90;;;;;;;29.00;37.05;99169.51;431387;1271;141513;-59
2022/08/01 12:28:05;;;;;;;2.70;2.00;;;;;;;28.46;37.57;99165.62;430558;1271;141245;-58
2022/08/01 12:38:24;;;;;;;3.40;2.70;;;;;;;27.99;37.68;99162.64;430381;1271;141730;-58
2022/08/01 12:48:33;;;;;;;5.20;2.00;;;;;;;27.23;38.73;99162.40;431411;1271;140813;-59
2022/08/01 12:58:39;;;;;;;3.60;1.70;;;;;;;27.48;39.24;99160.76;430980;1271;144931;-59
2022/08/01 13:08:45;;;;;;;4.10;1.70;;;;;;;28.34;38.22;99159.89;431232;1271;142145;-59
2022/08/01 13:18:53;;;;;;;3.90;1.60;;;;;;;28.78;36.75;99168.30;431259;1271;141671;-60
2022/08/01 13:29:08;;;;;;;2.30;1.40;;;;;;;29.13;35.38;99165.29;429755;1271;141054;-58
2022/08/01 13:49:38;;;;;;;3.40;1.80;;;;;;;29.12;35.86;99155.66;430287;1271;163905;-61
2022/08/01 13:59:45;;;;;;;2.60;1.70;;;;;;;28.65;36.65;99155.66;432346;1273;141424;-61
2022/08/01 14:09:51;;;;;;;3.00;1.50;;;;;;;28.39;36.58;99156.75;441882;1270;141068;-59
2022/08/01 14:20:19;;;;;;;3.40;1.70;;;;;;;28.16;36.30;99155.79;431651;1270;141715;-60
2022/08/01 14:30:25;;;;;;;4.90;1.90;;;;;;;27.96;36.70;99160.35;442207;1270;141585;-57
2022/08/01 14:40:31;;;;;;;4.00;2.20;;;;;;;27.80;37.60;99160.21;435331;1271;142189;-61
2022/08/01 14:50:37;;;;;;;3.10;2.20;;;;;;;28.02;37.81;99166.28;441602;1270;141335;-58
2022/08/01 15:00:43;;;;;;;14.20;3.80;;;;;;;28.09;37.62;99166.02;431875;1270;142324;-58
2022/08/01 15:10:50;;;;;;;4.20;2.30;;;;;;;27.88;38.00;99170.55;436312;1270;142545;-60
2022/08/01 15:20:57;;;;;;;3.10;2.10;;;;;;;27.50;38.89;99171.52;436362;1270;141156;-61
2022/08/01 15:31:03;;;;;;;8.30;2.70;;;;;;;27.57;39.14;99167.92;443004;1269;141854;-61
2022/08/01 15:41:09;;;;;;;2.50;2.10;;;;;;;27.54;40.09;99173.33;435158;1270;141319;-62
2022/08/01 15:51:15;;;;;;;7.10;3.20;;;;;;;27.61;39.93;99171.72;442708;1268;142766;-61
2022/08/01 16:01:21;;;;;;;3.70;2.50;;;;;;;27.49;39.71;99174.61;442030;1270;141613;-60
2022/08/01 16:11:27;;;;;;;6.20;2.70;;;;;;;27.38;39.97;99176.69;443692;1269;141314;-61
2022/08/01 16:21:33;;;;;;;5.90;2.10;;;;;;;27.18;40.29;99175.70;438217;1270;141695;-60
2022/08/01 16:31:39;;;;;;;3.30;2.30;;;;;;;26.66;41.35;99178.83;432949;1270;141119;-61
2022/08/01 16:42:06;;;;;;;5.50;3.20;;;;;;;26.12;42.71;99183.75;435476;1270;141521;-60
2022/08/01 16:52:13;;;;;;;5.20;2.90;;;;;;;25.84;43.49;99181.17;431804;1270;141763;-60
2022/08/01 17:02:18;;;;;;;9.70;3.30;;;;;;;25.48;45.50;99182.30;438476;1270;141842;-61
2022/08/01 17:12:25;;;;;;;4.40;2.70;;;;;;;25.24;46.92;99189.41;439178;1270;141728;-60
2022/08/01 17:22:31;;;;;;;7.00;3.50;;;;;;;24.94;47.57;99190.59;436694;1270;141334;-60
2022/08/01 17:32:38;;;;;;;6.10;3.50;;;;;;;24.57;49.03;99204.80;439266;1270;141607;-60
2022/08/01 17:42:44;;;;;;;6.60;4.40;;;;;;;23.91;49.89;99213.88;441241;1270;142549;-61
2022/08/01 17:52:50;;;;;;;7.40;4.70;;;;;;;23.36;51.18;99217.58;441626;1270;143016;-60
2022/08/01 18:02:56;;;;;;;6.40;4.90;;;;;;;23.11;52.19;99224.46;431127;1270;143936;-61
2022/08/01 18:13:02;;;;;;;9.70;4.70;;;;;;;22.79;53.19;99244.39;430923;1270;141903;-61
2022/08/01 18:23:09;;;;;;;;;;;;;;;22.47;54.20;99253.16;430358;1271;146566;-60
2022/08/01 18:33:15;;;;;;;7.10;6.00;;;;;;;22.15;55.15;99258.55;431588;1270;128161;-60
2022/08/01 18:43:22;;;;;;;5.40;4.60;;;;;;;21.89;55.99;99259.92;430591;1273;141149;-60
2022/08/01 18:53:27;;;;;;;7.30;5.20;;;;;;;21.62;57.37;99267.40;430852;1270;146717;-59
2022/08/01 19:03:33;;;;;;;10.70;5.50;;;;;;;21.38;58.40;99278.11;431804;1270;142129;-61
2022/08/01 19:13:44;;;;;;;9.90;5.50;;;;;;;21.20;59.09;99287.30;430251;1270;142662;-60
2022/08/01 19:34:15;;;;;;;15.90;5.60;;;;;;;20.84;61.38;99304.98;430947;1270;142914;-61
2022/08/01 19:44:24;;;;;;;8.80;5.90;;;;;;;20.67;62.22;99308.39;430955;1270;142620;-61
2022/08/01 19:54:34;;;;;;;6.70;5.90;;;;;;;20.52;63.11;99317.54;430885;1271;143756;-60
2022/08/01 20:04:42;;;;;;;9.50;6.50;;;;;;;20.45;63.77;99323.61;430735;1271;143776;-61
2022/08/01 20:14:52;;;;;;;9.00;6.50;;;;;;;20.38;64.73;99320.49;430440;1270;143147;-59
2022/08/01 20:25:00;;;;;;;9.80;7.00;;;;;;;20.20;65.34;99322.40;430454;1273;142127;-62
2022/08/01 20:35:08;;;;;;;7.90;6.70;;;;;;;20.06;66.01;99321.58;430936;1271;142855;-62
2022/08/01 20:45:16;;;;;;;7.80;7.10;;;;;;;19.92;66.61;99323.42;431773;1270;141419;-61
2022/08/01 20:55:26;;;;;;;9.20;7.20;;;;;;;19.64;67.17;99327.14;432763;1270;186298;-60
2022/08/01 21:05:36;;;;;;;8.90;8.10;;;;;;;19.35;68.04;99325.02;431306;1270;143560;-62
2022/08/01 21:15:53;;;;;;;8.10;6.80;;;;;;;19.07;68.82;99335.19;431491;1270;142554;-60
2022/08/01 21:26:22;;;;;;;9.70;8.70;;;;;;;18.76;69.54;99337.58;430275;1271;141827;-61
2022/08/01 21:36:29;;;;;;;8.80;7.90;;;;;;;18.69;70.23;99333.91;430988;1271;143305;-61
2022/08/01 21:46:36;;;;;;;9.40;8.40;;;;;;;18.68;70.98;99342.69;431042;1271;141397;-61
2022/08/01 21:56:54;;;;;;;8.60;7.80;;;;;;;18.63;71.46;99349.70;430764;1271;155554;-61
2022/08/01 22:07:02;;;;;;;9.10;8.30;;;;;;;18.54;71.85;99352.43;431108;1270;141985;-63
2022/08/01 22:17:10;;;;;;;9.80;8.80;;;;;;;18.49;72.39;99347.79;430029;1265;142542;-64
2022/08/01 22:27:23;;;;;;;10.10;9.20;;;;;;;18.44;72.90;99355.52;445883;1271;143058;-64
2022/08/01 22:37:49;;;;;;;8.30;7.60;;;;;;;18.32;73.33;99361.02;429470;1275;142197;-66
2022/08/01 22:48:10;;;;;;;9.30;8.60;;;;;;;18.14;73.97;99367.85;430448;1274;142736;-64
2022/08/01 22:58:19;;;;;;;11.80;10.70;;;;;;;17.89;74.15;99373.36;430229;1274;141984;-66
2022/08/01 23:08:25;;;;;;;10.20;9.40;;;;;;;17.66;74.73;99369.17;430140;1274;141974;-65
2022/08/01 23:18:31;;;;;;;10.50;9.60;;;;;;;17.59;75.32;99371.05;431209;1275;144115;-66
2022/08/01 23:28:39;;;;;;;10.60;9.70;;;;;;;17.50;75.65;99377.13;429890;1273;249209;-65
2022/08/01 23:38:45;;;;;;;11.00;9.80;;;;;;;17.32;75.82;99383.41;431036;1274;142287;-66
2022/08/01 23:48:51;;;;;;;12.10;10.70;;;;;;;17.16;76.50;99377.68;431004;1274;143410;-65
2022/08/01 23:58:57;;;;;;;11.80;10.80;;;;;;;17.06;77.19;99372.94;429034;1274;144458;-65
